sensor_id;sensor_type;location;lat;lon;timestamp;pressure;altitude;pressure_sealevel;temperature;humidity
41312;BME280;27061;41.648;24.568;2023-03-12T00:00:49;84667.66;;;6.59;70.51
41312;BME280;27061;41.648;24.568;2023-03-12T00:03:16;84666.44;;;6.50;69.50
41312;BME280;27061;41.648;24.568;2023-03-12T00:05:44;84657.66;;;6.41;69.10
41312;BME280;27061;41.648;24.568;2023-03-12T00:08:13;84626.31;;;6.26;70.48
41312;BME280;27061;41.648;24.568;2023-03-12T00:10:41;84646.09;;;6.35;71.95
41312;BME280;27061;41.648;24.568;2023-03-12T00:13:08;84597.44;;;5.88;68.85
41312;BME280;27061;41.648;24.568;2023-03-12T00:15:37;84678.44;;;6.32;69.74
41312;BME280;27061;41.648;24.568;2023-03-12T00:18:05;84651.28;;;6.14;69.76
41312;BME280;27061;41.648;24.568;2023-03-12T00:20:32;84673.00;;;6.28;70.37
41312;BME280;27061;41.648;24.568;2023-03-12T00:22:59;84674.47;;;6.23;69.25
41312;BME280;27061;41.648;24.568;2023-03-12T00:25:26;84649.44;;;6.00;69.67
41312;BME280;27061;41.648;24.568;2023-03-12T00:27:53;84668.31;;;6.20;69.84
41312;BME280;27061;41.648;24.568;2023-03-12T00:30:21;84666.31;;;6.17;69.69
41312;BME280;27061;41.648;24.568;2023-03-12T00:32:52;84636.69;;;5.80;69.25
41312;BME280;27061;41.648;24.568;2023-03-12T00:35:19;84679.53;;;6.06;68.73
41312;BME280;27061;41.648;24.568;2023-03-12T00:37:46;84648.91;;;5.90;70.86
41312;BME280;27061;41.648;24.568;2023-03-12T00:40:13;84659.81;;;5.96;72.98
41312;BME280;27061;41.648;24.568;2023-03-12T00:42:40;84667.94;;;6.04;69.70
41312;BME280;27061;41.648;24.568;2023-03-12T00:45:08;84641.00;;;5.67;68.02
41312;BME280;27061;41.648;24.568;2023-03-12T00:47:35;84640.97;;;5.69;68.93
41312;BME280;27061;41.648;24.568;2023-03-12T00:50:02;84624.97;;;5.39;69.97
41312;BME280;27061;41.648;24.568;2023-03-12T00:52:29;84658.91;;;5.64;71.68
41312;BME280;27061;41.648;24.568;2023-03-12T00:54:57;84665.66;;;5.71;69.67
41312;BME280;27061;41.648;24.568;2023-03-12T00:57:28;84635.81;;;5.49;70.46
41312;BME280;27061;41.648;24.568;2023-03-12T00:59:55;84659.44;;;5.73;70.77
41312;BME280;27061;41.648;24.568;2023-03-12T01:02:23;84658.66;;;5.80;69.75
41312;BME280;27061;41.648;24.568;2023-03-12T01:04:50;84661.47;;;5.74;71.77
41312;BME280;27061;41.648;24.568;2023-03-12T01:07:17;84646.47;;;5.69;71.08
41312;BME280;27061;41.648;24.568;2023-03-12T01:09:44;84665.50;;;5.81;72.21
41312;BME280;27061;41.648;24.568;2023-03-12T01:12:11;84662.84;;;5.75;70.27
41312;BME280;27061;41.648;24.568;2023-03-12T01:14:38;84657.22;;;5.83;68.76
41312;BME280;27061;41.648;24.568;2023-03-12T01:17:06;84678.31;;;5.97;67.70
41312;BME280;27061;41.648;24.568;2023-03-12T01:19:33;84630.75;;;5.64;67.56
41312;BME280;27061;41.648;24.568;2023-03-12T01:22:00;84651.84;;;5.77;69.14
41312;BME280;27061;41.648;24.568;2023-03-12T01:24:28;84657.44;;;5.71;68.41
41312;BME280;27061;41.648;24.568;2023-03-12T01:26:54;84666.78;;;5.86;67.05
41312;BME280;27061;41.648;24.568;2023-03-12T01:29:22;84660.13;;;5.73;68.49
41312;BME280;27061;41.648;24.568;2023-03-12T01:31:51;84666.38;;;5.70;68.20
41312;BME280;27061;41.648;24.568;2023-03-12T01:34:19;84662.25;;;5.71;67.97
41312;BME280;27061;41.648;24.568;2023-03-12T01:36:46;84674.66;;;5.66;68.91
41312;BME280;27061;41.648;24.568;2023-03-12T01:39:13;84667.78;;;5.67;69.33
41312;BME280;27061;41.648;24.568;2023-03-12T01:41:41;84658.88;;;5.66;69.63
41312;BME280;27061;41.648;24.568;2023-03-12T01:44:12;84662.56;;;5.48;67.95
41312;BME280;27061;41.648;24.568;2023-03-12T01:46:41;84649.63;;;5.41;67.38
41312;BME280;27061;41.648;24.568;2023-03-12T01:49:26;84662.75;;;5.34;68.18
41312;BME280;27061;41.648;24.568;2023-03-12T01:52:10;84661.34;;;5.39;67.28
41312;BME280;27061;41.648;24.568;2023-03-12T01:54:55;84652.06;;;5.16;67.48
41312;BME280;27061;41.648;24.568;2023-03-12T01:57:44;84664.94;;;5.26;67.44
41312;BME280;27061;41.648;24.568;2023-03-12T02:00:24;84642.06;;;4.92;66.90
41312;BME280;27061;41.648;24.568;2023-03-12T02:02:59;84636.50;;;4.98;67.47
41312;BME280;27061;41.648;24.568;2023-03-12T02:08:00;84649.50;;;5.02;68.28
41312;BME280;27061;41.648;24.568;2023-03-12T02:10:28;84658.91;;;5.15;68.24
41312;BME280;27061;41.648;24.568;2023-03-12T02:12:55;84666.28;;;5.29;65.94
41312;BME280;27061;41.648;24.568;2023-03-12T02:15:22;84635.84;;;4.98;66.97
41312;BME280;27061;41.648;24.568;2023-03-12T02:17:49;84654.22;;;5.07;67.77
41312;BME280;27061;41.648;24.568;2023-03-12T02:20:23;84639.28;;;4.96;68.02
41312;BME280;27061;41.648;24.568;2023-03-12T02:23:09;84677.97;;;5.27;66.37
41312;BME280;27061;41.648;24.568;2023-03-12T02:25:41;84678.00;;;5.25;66.70
41312;BME280;27061;41.648;24.568;2023-03-12T02:28:13;84640.59;;;5.01;66.85
41312;BME280;27061;41.648;24.568;2023-03-12T02:30:45;84682.94;;;5.14;64.72
41312;BME280;27061;41.648;24.568;2023-03-12T02:33:13;84687.03;;;5.15;65.13
41312;BME280;27061;41.648;24.568;2023-03-12T02:35:43;84620.38;;;4.74;64.16
41312;BME280;27061;41.648;24.568;2023-03-12T02:41:05;84704.97;;;5.06;65.70
41312;BME280;27061;41.648;24.568;2023-03-12T02:43:36;84676.44;;;4.85;65.77
41312;BME280;27061;41.648;24.568;2023-03-12T02:46:05;84666.97;;;4.76;65.47
41312;BME280;27061;41.648;24.568;2023-03-12T02:48:32;84713.25;;;5.02;65.06
41312;BME280;27061;41.648;24.568;2023-03-12T02:51:03;84706.63;;;4.83;63.51
41312;BME280;27061;41.648;24.568;2023-03-12T02:53:33;84718.31;;;4.79;59.26
41312;BME280;27061;41.648;24.568;2023-03-12T02:56:00;84674.84;;;4.45;58.29
41312;BME280;27061;41.648;24.568;2023-03-12T02:58:27;84719.66;;;4.83;59.43
41312;BME280;27061;41.648;24.568;2023-03-12T03:00:54;84708.22;;;4.66;61.14
41312;BME280;27061;41.648;24.568;2023-03-12T03:03:22;84728.84;;;4.57;61.45
41312;BME280;27061;41.648;24.568;2023-03-12T03:05:49;84728.81;;;4.61;61.37
41312;BME280;27061;41.648;24.568;2023-03-12T03:08:16;84724.78;;;4.54;62.27
41312;BME280;27061;41.648;24.568;2023-03-12T03:10:43;84697.69;;;4.23;62.18
41312;BME280;27061;41.648;24.568;2023-03-12T03:13:10;84728.34;;;4.40;62.48
41312;BME280;27061;41.648;24.568;2023-03-12T03:15:38;84711.34;;;4.25;63.42
41312;BME280;27061;41.648;24.568;2023-03-12T03:18:05;84702.50;;;4.21;59.15
41312;BME280;27061;41.648;24.568;2023-03-12T03:20:33;84693.78;;;4.02;59.87
41312;BME280;27061;41.648;24.568;2023-03-12T03:23:00;84753.06;;;4.34;55.68
41312;BME280;27061;41.648;24.568;2023-03-12T03:25:27;84714.34;;;3.99;54.78
41312;BME280;27061;41.648;24.568;2023-03-12T03:27:55;84710.44;;;3.72;57.38
41312;BME280;27061;41.648;24.568;2023-03-12T03:30:22;84768.34;;;4.07;57.39
41312;BME280;27061;41.648;24.568;2023-03-12T03:32:50;84758.09;;;4.03;55.92
41312;BME280;27061;41.648;24.568;2023-03-12T03:35:18;84770.41;;;4.06;55.82
41312;BME280;27061;41.648;24.568;2023-03-12T03:37:45;84771.66;;;4.23;54.96
41312;BME280;27061;41.648;24.568;2023-03-12T03:40:12;84765.06;;;3.90;55.03
41312;BME280;27061;41.648;24.568;2023-03-12T03:42:39;84770.56;;;3.86;56.69
41312;BME280;27061;41.648;24.568;2023-03-12T03:45:08;84754.31;;;3.61;58.23
41312;BME280;27061;41.648;24.568;2023-03-12T03:47:37;84778.09;;;3.87;59.04
41312;BME280;27061;41.648;24.568;2023-03-12T03:50:05;84739.31;;;3.54;57.17
41312;BME280;27061;41.648;24.568;2023-03-12T03:52:32;84774.75;;;3.77;56.91
41312;BME280;27061;41.648;24.568;2023-03-12T03:55:00;84777.44;;;3.83;56.51
41312;BME280;27061;41.648;24.568;2023-03-12T03:57:28;84739.41;;;3.42;54.22
41312;BME280;27061;41.648;24.568;2023-03-12T03:59:55;84788.38;;;3.83;55.68
41312;BME280;27061;41.648;24.568;2023-03-12T04:02:28;84735.34;;;3.31;53.12
41312;BME280;27061;41.648;24.568;2023-03-12T04:04:58;84785.75;;;3.68;55.50
41312;BME280;27061;41.648;24.568;2023-03-12T04:07:26;84764.69;;;3.49;56.07
41312;BME280;27061;41.648;24.568;2023-03-12T04:09:54;84784.47;;;3.51;54.96
41312;BME280;27061;41.648;24.568;2023-03-12T04:12:22;84798.16;;;3.53;52.03
41312;BME280;27061;41.648;24.568;2023-03-12T04:14:52;84755.97;;;3.14;53.38
41312;BME280;27061;41.648;24.568;2023-03-12T04:17:19;84806.41;;;3.45;54.73
41312;BME280;27061;41.648;24.568;2023-03-12T04:19:47;84807.88;;;3.28;50.95
41312;BME280;27061;41.648;24.568;2023-03-12T04:22:14;84769.06;;;2.95;52.80
41312;BME280;27061;41.648;24.568;2023-03-12T04:24:41;84782.03;;;2.97;51.24
41312;BME280;27061;41.648;24.568;2023-03-12T04:27:08;84768.38;;;2.97;50.63
41312;BME280;27061;41.648;24.568;2023-03-12T04:29:36;84745.28;;;2.61;52.18
41312;BME280;27061;41.648;24.568;2023-03-12T04:32:05;84822.31;;;3.06;48.09
41312;BME280;27061;41.648;24.568;2023-03-12T04:34:33;84832.63;;;2.89;50.30
41312;BME280;27061;41.648;24.568;2023-03-12T04:37:01;84812.16;;;2.78;49.52
41312;BME280;27061;41.648;24.568;2023-03-12T04:39:29;84813.59;;;2.55;48.33
41312;BME280;27061;41.648;24.568;2023-03-12T04:41:56;84805.38;;;2.57;51.75
41312;BME280;27061;41.648;24.568;2023-03-12T04:44:24;84832.66;;;2.85;49.73
41312;BME280;27061;41.648;24.568;2023-03-12T04:46:52;84834.00;;;2.92;50.74
41312;BME280;27061;41.648;24.568;2023-03-12T04:49:21;84825.78;;;2.88;51.75
41312;BME280;27061;41.648;24.568;2023-03-12T04:51:49;84808.16;;;2.51;50.14
41312;BME280;27061;41.648;24.568;2023-03-12T04:54:18;84801.34;;;2.40;53.41
41312;BME280;27061;41.648;24.568;2023-03-12T04:56:47;84844.34;;;2.33;48.87
41312;BME280;27061;41.648;24.568;2023-03-12T04:59:15;84846.41;;;2.43;49.40
41312;BME280;27061;41.648;24.568;2023-03-12T05:01:44;84803.44;;;1.84;50.99
41312;BME280;27061;41.648;24.568;2023-03-12T05:04:17;84802.75;;;1.78;50.63
41312;BME280;27061;41.648;24.568;2023-03-12T05:06:44;84838.94;;;2.01;51.83
41312;BME280;27061;41.648;24.568;2023-03-12T05:09:12;84864.84;;;2.24;51.15
41312;BME280;27061;41.648;24.568;2023-03-12T05:11:39;84854.63;;;2.20;54.01
41312;BME280;27061;41.648;24.568;2023-03-12T05:14:15;84793.88;;;1.63;54.81
41312;BME280;27061;41.648;24.568;2023-03-12T05:16:43;84842.34;;;1.97;52.69
41312;BME280;27061;41.648;24.568;2023-03-12T05:19:11;84883.97;;;1.98;48.55
41312;BME280;27061;41.648;24.568;2023-03-12T05:21:41;84882.59;;;2.05;49.15
41312;BME280;27061;41.648;24.568;2023-03-12T05:24:11;84845.03;;;1.71;49.81
41312;BME280;27061;41.648;24.568;2023-03-12T05:26:38;84817.75;;;1.55;52.18
41312;BME280;27061;41.648;24.568;2023-03-12T05:29:15;84888.75;;;2.01;52.46
41312;BME280;27061;41.648;24.568;2023-03-12T05:31:43;84850.50;;;1.77;54.53
41312;BME280;27061;41.648;24.568;2023-03-12T05:34:11;84891.47;;;2.03;53.29
41312;BME280;27061;41.648;24.568;2023-03-12T05:36:41;84887.38;;;2.16;49.05
41312;BME280;27061;41.648;24.568;2023-03-12T05:39:10;84849.84;;;1.76;48.28
41312;BME280;27061;41.648;24.568;2023-03-12T05:41:40;84816.41;;;1.72;50.74
41312;BME280;27061;41.648;24.568;2023-03-12T05:44:14;84874.41;;;1.93;49.93
41312;BME280;27061;41.648;24.568;2023-03-12T05:46:45;84876.44;;;1.82;47.63
41312;BME280;27061;41.648;24.568;2023-03-12T05:49:13;84904.44;;;2.13;48.86
41312;BME280;27061;41.648;24.568;2023-03-12T05:51:40;84873.72;;;1.90;52.36
41312;BME280;27061;41.648;24.568;2023-03-12T05:54:09;84892.84;;;2.04;51.03
41312;BME280;27061;41.648;24.568;2023-03-12T05:56:37;84894.19;;;1.93;55.20
41312;BME280;27061;41.648;24.568;2023-03-12T05:59:05;84902.38;;;2.03;50.45
41312;BME280;27061;41.648;24.568;2023-03-12T06:01:32;84916.03;;;1.97;51.73
41312;BME280;27061;41.648;24.568;2023-03-12T06:04:02;84922.88;;;2.00;51.81
41312;BME280;27061;41.648;24.568;2023-03-12T06:06:30;84922.19;;;2.18;49.51
41312;BME280;27061;41.648;24.568;2023-03-12T06:08:58;84938.59;;;2.20;51.62
41312;BME280;27061;41.648;24.568;2023-03-12T06:11:25;84914.66;;;1.92;47.82
41312;BME280;27061;41.648;24.568;2023-03-12T06:13:53;84883.25;;;1.77;48.98
41312;BME280;27061;41.648;24.568;2023-03-12T06:16:22;84936.53;;;2.25;52.70
41312;BME280;27061;41.648;24.568;2023-03-12T06:18:59;84924.25;;;2.17;49.90
41312;BME280;27061;41.648;24.568;2023-03-12T06:21:29;84957.03;;;2.52;52.56
41312;BME280;27061;41.648;24.568;2023-03-12T06:23:58;84959.09;;;2.49;49.37
41312;BME280;27061;41.648;24.568;2023-03-12T06:26:30;84972.75;;;2.62;47.84
41312;BME280;27061;41.648;24.568;2023-03-12T06:28:58;84963.84;;;2.65;48.12
41312;BME280;27061;41.648;24.568;2023-03-12T06:31:25;84924.94;;;2.30;54.03
41312;BME280;27061;41.648;24.568;2023-03-12T06:33:52;84970.00;;;2.62;57.58
41312;BME280;27061;41.648;24.568;2023-03-12T06:36:19;84980.94;;;2.82;54.32
41312;BME280;27061;41.648;24.568;2023-03-12T06:38:47;84933.13;;;2.54;54.99
41312;BME280;27061;41.648;24.568;2023-03-12T06:41:16;84980.25;;;2.85;50.41
41312;BME280;27061;41.648;24.568;2023-03-12T06:43:44;84944.75;;;2.53;48.33
41312;BME280;27061;41.648;24.568;2023-03-12T06:46:13;84954.28;;;2.58;44.86
41312;BME280;27061;41.648;24.568;2023-03-12T06:48:40;84957.03;;;2.56;48.29
41312;BME280;27061;41.648;24.568;2023-03-12T06:51:09;84993.91;;;2.79;50.06
41312;BME280;27061;41.648;24.568;2023-03-12T06:53:36;85006.22;;;2.84;53.45
41312;BME280;27061;41.648;24.568;2023-03-12T06:56:08;84995.28;;;2.72;46.59
41312;BME280;27061;41.648;24.568;2023-03-12T06:58:36;84991.19;;;2.75;44.43
41312;BME280;27061;41.648;24.568;2023-03-12T07:01:03;84994.63;;;2.72;48.49
41312;BME280;27061;41.648;24.568;2023-03-12T07:03:31;85019.88;;;2.90;49.48
41312;BME280;27061;41.648;24.568;2023-03-12T07:05:58;84978.88;;;2.58;49.85
41312;BME280;27061;41.648;24.568;2023-03-12T07:08:26;85022.63;;;2.62;43.87
41312;BME280;27061;41.648;24.568;2023-03-12T07:10:57;84993.91;;;2.41;49.27
41312;BME280;27061;41.648;24.568;2023-03-12T07:13:28;85012.38;;;2.61;53.41
41312;BME280;27061;41.648;24.568;2023-03-12T07:15:55;84986.41;;;2.41;52.75
41312;BME280;27061;41.648;24.568;2023-03-12T07:18:22;85000.75;;;2.60;48.13
41312;BME280;27061;41.648;24.568;2023-03-12T07:20:50;85017.16;;;2.68;49.97
41312;BME280;27061;41.648;24.568;2023-03-12T07:23:18;85022.59;;;2.76;50.11
41312;BME280;27061;41.648;24.568;2023-03-12T07:25:46;85022.63;;;2.72;52.18
41312;BME280;27061;41.648;24.568;2023-03-12T07:28:14;85025.34;;;2.76;51.55
41312;BME280;27061;41.648;24.568;2023-03-12T07:30:44;84999.38;;;2.69;57.59
41312;BME280;27061;41.648;24.568;2023-03-12T07:33:18;84980.94;;;2.57;53.64
41312;BME280;27061;41.648;24.568;2023-03-12T07:35:46;85003.47;;;2.86;47.68
41312;BME280;27061;41.648;24.568;2023-03-12T07:38:17;84998.00;;;3.01;51.46
41312;BME280;27061;41.648;24.568;2023-03-12T07:40:49;85038.34;;;3.16;47.35
41312;BME280;27061;41.648;24.568;2023-03-12T07:43:17;85027.41;;;3.04;53.41
41312;BME280;27061;41.648;24.568;2023-03-12T07:45:48;85029.44;;;3.22;47.18
41312;BME280;27061;41.648;24.568;2023-03-12T07:48:16;84985.03;;;2.85;50.78
41312;BME280;27061;41.648;24.568;2023-03-12T07:50:46;85028.75;;;3.25;52.46
41312;BME280;27061;41.648;24.568;2023-03-12T07:53:13;85042.41;;;3.31;52.42
41312;BME280;27061;41.648;24.568;2023-03-12T07:55:43;84991.88;;;3.06;48.47
41312;BME280;27061;41.648;24.568;2023-03-12T07:58:12;85024.63;;;3.33;49.74
41312;BME280;27061;41.648;24.568;2023-03-12T08:00:40;85027.38;;;3.22;49.25
41312;BME280;27061;41.648;24.568;2023-03-12T08:03:07;85040.34;;;3.52;49.94
41312;BME280;27061;41.648;24.568;2023-03-12T08:05:34;85047.16;;;3.61;45.80
41312;BME280;27061;41.648;24.568;2023-03-12T08:08:02;85030.75;;;3.55;48.59
41312;BME280;27061;41.648;24.568;2023-03-12T08:10:29;85052.63;;;3.67;48.09
41312;BME280;27061;41.648;24.568;2023-03-12T08:12:56;85038.97;;;3.45;46.87
41312;BME280;27061;41.648;24.568;2023-03-12T08:15:23;85059.50;;;3.56;48.72
41312;BME280;27061;41.648;24.568;2023-03-12T08:17:51;85067.72;;;3.46;45.40
41312;BME280;27061;41.648;24.568;2023-03-12T08:20:18;85064.28;;;3.60;48.00
41312;BME280;27061;41.648;24.568;2023-03-12T08:22:45;85043.09;;;3.48;47.85
41312;BME280;27061;41.648;24.568;2023-03-12T08:25:12;85019.16;;;3.43;49.06
41312;BME280;27061;41.648;24.568;2023-03-12T08:27:39;85060.84;;;3.51;42.64
41312;BME280;27061;41.648;24.568;2023-03-12T08:30:07;85048.53;;;3.54;48.33
41312;BME280;27061;41.648;24.568;2023-03-12T08:32:34;85038.97;;;3.45;43.90
41312;BME280;27061;41.648;24.568;2023-03-12T08:35:02;85046.47;;;3.61;46.94
41312;BME280;27061;41.648;24.568;2023-03-12T08:37:31;85056.72;;;3.79;48.02
41312;BME280;27061;41.648;24.568;2023-03-12T08:39:58;85056.69;;;3.87;51.41
41312;BME280;27061;41.648;24.568;2023-03-12T08:42:26;85043.75;;;3.53;46.74
41312;BME280;27061;41.648;24.568;2023-03-12T08:44:53;85049.88;;;3.78;55.12
41312;BME280;27061;41.648;24.568;2023-03-12T08:47:20;85034.09;;;3.82;52.41
41312;BME280;27061;41.648;24.568;2023-03-12T08:49:47;85031.34;;;3.90;55.06
41312;BME280;27061;41.648;24.568;2023-03-12T08:52:14;85034.69;;;4.07;48.99
41312;BME280;27061;41.648;24.568;2023-03-12T08:54:41;85012.78;;;4.05;44.70
41312;BME280;27061;41.648;24.568;2023-03-12T08:57:08;85012.09;;;4.07;53.25
41312;BME280;27061;41.648;24.568;2023-03-12T08:59:36;85031.88;;;4.29;52.60
41312;BME280;27061;41.648;24.568;2023-03-12T09:02:03;85034.56;;;4.35;45.97
41312;BME280;27061;41.648;24.568;2023-03-12T09:04:31;85034.50;;;4.52;52.80
41312;BME280;27061;41.648;24.568;2023-03-12T09:07:00;85031.72;;;4.56;47.68
41312;BME280;27061;41.648;24.568;2023-03-12T09:09:27;85026.28;;;4.50;49.55
41312;BME280;27061;41.648;24.568;2023-03-12T09:11:54;85005.75;;;4.47;49.75
41312;BME280;27061;41.648;24.568;2023-03-12T09:14:21;84985.28;;;4.27;44.47
41312;BME280;27061;41.648;24.568;2023-03-12T09:17:08;85014.53;;;4.67;51.68
41312;BME280;27061;41.648;24.568;2023-03-12T09:19:35;85002.16;;;4.72;50.59
41312;BME280;27061;41.648;24.568;2023-03-12T09:22:02;85028.63;;;5.14;53.67
41312;BME280;27061;41.648;24.568;2023-03-12T09:24:29;84980.78;;;4.89;51.08
41312;BME280;27061;41.648;24.568;2023-03-12T09:26:56;85029.81;;;5.36;51.54
41312;BME280;27061;41.648;24.568;2023-03-12T09:29:24;85025.75;;;5.29;44.23
41312;BME280;27061;41.648;24.568;2023-03-12T09:31:51;85012.00;;;5.31;46.39
41312;BME280;27061;41.648;24.568;2023-03-12T09:34:18;85044.81;;;5.49;49.97
41312;BME280;27061;41.648;24.568;2023-03-12T09:36:45;84939.06;;;4.78;46.82
41312;BME280;27061;41.648;24.568;2023-03-12T09:39:12;85038.00;;;5.42;51.03
41312;BME280;27061;41.648;24.568;2023-03-12T09:41:40;85037.84;;;5.60;52.27
41312;BME280;27061;41.648;24.568;2023-03-12T09:44:38;85037.03;;;5.74;50.55
41312;BME280;27061;41.648;24.568;2023-03-12T09:47:25;85028.78;;;5.74;50.50
41312;BME280;27061;41.648;24.568;2023-03-12T09:50:00;85006.28;;;5.61;47.62
41312;BME280;27061;41.648;24.568;2023-03-12T09:52:33;85021.19;;;5.78;49.27
41312;BME280;27061;41.648;24.568;2023-03-12T09:55:13;85037.56;;;5.93;51.28
41312;BME280;27061;41.648;24.568;2023-03-12T09:57:42;85019.72;;;5.87;52.82
41312;BME280;27061;41.648;24.568;2023-03-12T10:00:12;85003.25;;;5.85;50.87
41312;BME280;27061;41.648;24.568;2023-03-12T10:05:36;84998.38;;;5.96;50.33
41312;BME280;27061;41.648;24.568;2023-03-12T10:08:46;85029.03;;;6.19;49.67
41312;BME280;27061;41.648;24.568;2023-03-12T10:11:42;85000.81;;;6.24;48.58
41312;BME280;27061;41.648;24.568;2023-03-12T10:14:39;85042.97;;;6.62;45.47
41312;BME280;27061;41.648;24.568;2023-03-12T10:17:28;85054.50;;;6.75;49.63
41312;BME280;27061;41.648;24.568;2023-03-12T10:28:45;85051.34;;;7.07;51.50
41312;BME280;27061;41.648;24.568;2023-03-12T10:34:15;84996.53;;;6.89;51.30
41312;BME280;27061;41.648;24.568;2023-03-12T10:36:44;85041.38;;;7.30;53.24
41312;BME280;27061;41.648;24.568;2023-03-12T10:39:18;84994.94;;;7.04;51.62
41312;BME280;27061;41.648;24.568;2023-03-12T10:41:47;85061.44;;;7.68;48.86
41312;BME280;27061;41.648;24.568;2023-03-12T10:44:21;85043.72;;;7.57;41.83
41312;BME280;27061;41.648;24.568;2023-03-12T10:49:29;85062.66;;;7.79;43.40
41312;BME280;27061;41.648;24.568;2023-03-12T10:52:03;85057.03;;;7.85;45.23
41312;BME280;27061;41.648;24.568;2023-03-12T10:56:59;85015.97;;;7.69;47.23
41312;BME280;27061;41.648;24.568;2023-03-12T10:59:30;85045.91;;;7.93;47.67
41312;BME280;27061;41.648;24.568;2023-03-12T11:01:58;85038.31;;;7.94;40.20
41312;BME280;27061;41.648;24.568;2023-03-12T11:04:28;85032.72;;;7.98;42.88
41312;BME280;27061;41.648;24.568;2023-03-12T11:09:31;84927.03;;;7.35;49.39
41312;BME280;27061;41.648;24.568;2023-03-12T11:11:58;85033.75;;;8.17;50.95
41312;BME280;27061;41.648;24.568;2023-03-12T11:14:27;85033.06;;;8.17;41.48
41312;BME280;27061;41.648;24.568;2023-03-12T11:16:55;85038.41;;;8.27;39.95
41312;BME280;27061;41.648;24.568;2023-03-12T11:19:31;84957.91;;;7.83;44.80
41312;BME280;27061;41.648;24.568;2023-03-12T11:22:01;85011.00;;;8.19;42.80
41312;BME280;27061;41.648;24.568;2023-03-12T11:24:29;84998.59;;;8.18;48.27
41312;BME280;27061;41.648;24.568;2023-03-12T11:27:29;85018.94;;;8.37;48.40
41312;BME280;27061;41.648;24.568;2023-03-12T11:29:52;85006.53;;;8.38;48.25
41312;BME280;27061;41.648;24.568;2023-03-12T11:32:29;85019.84;;;8.62;49.32
41312;BME280;27061;41.648;24.568;2023-03-12T11:34:57;85015.63;;;8.67;47.67
41312;BME280;27061;41.648;24.568;2023-03-12T11:40:52;85000.56;;;8.60;48.57
41312;BME280;27061;41.648;24.568;2023-03-12T11:43:46;85025.06;;;8.78;48.04
41312;BME280;27061;41.648;24.568;2023-03-12T11:52:02;84997.72;;;8.99;48.56
41312;BME280;27061;41.648;24.568;2023-03-12T11:54:47;85003.66;;;9.12;49.80
41312;BME280;27061;41.648;24.568;2023-03-12T11:57:55;85019.81;;;9.32;50.21
41312;BME280;27061;41.648;24.568;2023-03-12T12:00:55;84997.72;;;9.32;49.92
41312;BME280;27061;41.648;24.568;2023-03-12T12:18:01;84984.72;;;9.55;47.04
41312;BME280;27061;41.648;24.568;2023-03-12T12:20:44;84978.16;;;9.42;40.99
41312;BME280;27061;41.648;24.568;2023-03-12T12:23:27;85006.47;;;9.72;45.70
41312;BME280;27061;41.648;24.568;2023-03-12T12:26:08;85021.03;;;9.70;39.20
41312;BME280;27061;41.648;24.568;2023-03-12T12:36:37;85008.16;;;9.59;43.28
41312;BME280;27061;41.648;24.568;2023-03-12T12:39:16;85033.50;;;9.67;44.42
41312;BME280;27061;41.648;24.568;2023-03-12T12:41:52;85027.50;;;9.59;46.33
41312;BME280;27061;41.648;24.568;2023-03-12T12:44:28;85035.63;;;9.65;46.18
41312;BME280;27061;41.648;24.568;2023-03-12T12:46:59;85004.56;;;9.33;46.48
41312;BME280;27061;41.648;24.568;2023-03-12T12:49:43;84997.78;;;9.28;46.62
41312;BME280;27061;41.648;24.568;2023-03-12T12:52:19;85040.28;;;9.74;46.21
41312;BME280;27061;41.648;24.568;2023-03-12T13:02:57;85050.31;;;9.88;44.65
41312;BME280;27061;41.648;24.568;2023-03-12T13:05:27;85049.06;;;9.83;46.31
41312;BME280;27061;41.648;24.568;2023-03-12T13:07:55;85067.69;;;9.84;46.99
41312;BME280;27061;41.648;24.568;2023-03-12T13:13:11;85061.41;;;9.86;45.86
41312;BME280;27061;41.648;24.568;2023-03-12T13:15:40;85042.38;;;9.74;44.63
41312;BME280;27061;41.648;24.568;2023-03-12T13:18:23;85068.41;;;10.12;46.73
41312;BME280;27061;41.648;24.568;2023-03-12T13:26:24;85073.13;;;10.17;43.87
41312;BME280;27061;41.648;24.568;2023-03-12T13:31:39;85043.34;;;9.91;43.37
41312;BME280;27061;41.648;24.568;2023-03-12T13:36:49;85091.50;;;10.31;44.90
41312;BME280;27061;41.648;24.568;2023-03-12T13:39:28;85067.66;;;10.15;43.34
41312;BME280;27061;41.648;24.568;2023-03-12T13:41:57;85095.81;;;9.93;37.48
41312;BME280;27061;41.648;24.568;2023-03-12T13:44:38;85046.41;;;9.46;39.15
41312;BME280;27061;41.648;24.568;2023-03-12T13:47:26;85090.91;;;9.65;38.34
41312;BME280;27061;41.648;24.568;2023-03-12T13:50:23;85097.91;;;9.62;38.78
41312;BME280;27061;41.648;24.568;2023-03-12T13:53:05;85027.63;;;8.89;39.74
41312;BME280;27061;41.648;24.568;2023-03-12T13:55:35;85075.88;;;9.25;40.23
41312;BME280;27061;41.648;24.568;2023-03-12T13:58:08;85064.81;;;8.92;38.81
41312;BME280;27061;41.648;24.568;2023-03-12T14:00:52;85070.31;;;8.92;41.96
41312;BME280;27061;41.648;24.568;2023-03-12T14:05:59;85055.47;;;8.76;40.55
41312;BME280;27061;41.648;24.568;2023-03-12T14:18:51;85089.06;;;8.48;42.26
41312;BME280;27061;41.648;24.568;2023-03-12T14:21:20;85061.44;;;8.11;42.71
41312;BME280;27061;41.648;24.568;2023-03-12T14:23:55;85113.97;;;8.46;44.55
41312;BME280;27061;41.648;24.568;2023-03-12T14:26:27;85087.16;;;8.40;42.06
41312;BME280;27061;41.648;24.568;2023-03-12T14:29:07;85100.19;;;8.44;42.62
41312;BME280;27061;41.648;24.568;2023-03-12T14:31:41;85132.25;;;8.64;42.86
41312;BME280;27061;41.648;24.568;2023-03-12T14:34:17;85088.13;;;8.23;42.81
41312;BME280;27061;41.648;24.568;2023-03-12T14:39:31;85154.47;;;8.56;44.97
41312;BME280;27061;41.648;24.568;2023-03-12T14:42:04;85149.06;;;8.48;44.76
41312;BME280;27061;41.648;24.568;2023-03-12T14:44:35;85145.00;;;8.44;42.11
41312;BME280;27061;41.648;24.568;2023-03-12T14:47:05;85091.47;;;7.86;42.69
41312;BME280;27061;41.648;24.568;2023-03-12T14:49:42;85157.94;;;8.11;42.34
41312;BME280;27061;41.648;24.568;2023-03-12T14:52:14;85159.44;;;8.02;41.89
41312;BME280;27061;41.648;24.568;2023-03-12T14:57:25;85096.66;;;7.14;41.25